sensor_id;sensor_type;location;lat;lon;timestamp;P1;durP1;ratioP1;P2;durP2;ratioP2
76962;SDS011;65902;51.452;7.198;2022-12-26T00:01:01;6.95;;;5.65;;
76962;SDS011;65902;51.452;7.198;2022-12-26T00:02:04;6.38;;;5.60;;
76962;SDS011;65902;51.452;7.198;2022-12-26T00:03:05;6.13;;;5.28;;
76962;SDS011;65902;51.452;7.198;2022-12-26T00:04:05;6.45;;;5.72;;
76962;SDS011;65902;51.452;7.198;2022-12-26T00:05:08;7.20;;;5.55;;
76962;SDS011;65902;51.452;7.198;2022-12-26T00:06:12;7.82;;;6.95;;
76962;SDS011;65902;51.452;7.198;2022-12-26T00:07:13;8.18;;;6.88;;
76962;SDS011;65902;51.452;7.198;2022-12-26T00:08:14;8.77;;;7.88;;
76962;SDS011;65902;51.452;7.198;2022-12-26T00:09:14;5.93;;;5.28;;
76962;SDS011;65902;51.452;7.198;2022-12-26T00:10:17;7.45;;;6.75;;
76962;SDS011;65902;51.452;7.198;2022-12-26T00:11:18;7.00;;;6.25;;
76962;SDS011;65902;51.452;7.198;2022-12-26T00:12:19;8.27;;;7.05;;
76962;SDS011;65902;51.452;7.198;2022-12-26T00:13:22;6.85;;;5.85;;
76962;SDS011;65902;51.452;7.198;2022-12-26T00:14:22;8.85;;;6.75;;
76962;SDS011;65902;51.452;7.198;2022-12-26T00:15:22;10.43;;;9.45;;
76962;SDS011;65902;51.452;7.198;2022-12-26T00:16:23;8.25;;;6.85;;
76962;SDS011;65902;51.452;7.198;2022-12-26T00:17:26;8.00;;;6.55;;
76962;SDS011;65902;51.452;7.198;2022-12-26T00:18:27;8.32;;;7.28;;
76962;SDS011;65902;51.452;7.198;2022-12-26T00:19:27;7.68;;;6.78;;
76962;SDS011;65902;51.452;7.198;2022-12-26T00:20:27;8.48;;;6.75;;
76962;SDS011;65902;51.452;7.198;2022-12-26T00:21:30;8.80;;;6.85;;
76962;SDS011;65902;51.452;7.198;2022-12-26T00:22:33;8.52;;;6.70;;
76962;SDS011;65902;51.452;7.198;2022-12-26T00:23:34;8.45;;;6.22;;
76962;SDS011;65902;51.452;7.198;2022-12-26T00:24:35;7.13;;;6.40;;
76962;SDS011;65902;51.452;7.198;2022-12-26T00:25:35;7.55;;;6.53;;
76962;SDS011;65902;51.452;7.198;2022-12-26T00:26:36;7.97;;;7.18;;
76962;SDS011;65902;51.452;7.198;2022-12-26T00:27:36;8.30;;;6.63;;
76962;SDS011;65902;51.452;7.198;2022-12-26T00:28:36;8.70;;;7.68;;
76962;SDS011;65902;51.452;7.198;2022-12-26T00:29:37;10.15;;;8.13;;
76962;SDS011;65902;51.452;7.198;2022-12-26T00:30:37;9.23;;;7.60;;
76962;SDS011;65902;51.452;7.198;2022-12-26T00:31:38;9.35;;;8.38;;
76962;SDS011;65902;51.452;7.198;2022-12-26T00:32:38;7.28;;;5.75;;
76962;SDS011;65902;51.452;7.198;2022-12-26T00:33:38;8.45;;;7.18;;
76962;SDS011;65902;51.452;7.198;2022-12-26T00:34:39;9.48;;;8.52;;
76962;SDS011;65902;51.452;7.198;2022-12-26T00:35:39;9.65;;;7.50;;
76962;SDS011;65902;51.452;7.198;2022-12-26T00:36:40;11.80;;;8.80;;
76962;SDS011;65902;51.452;7.198;2022-12-26T00:37:40;10.95;;;8.98;;
76962;SDS011;65902;51.452;7.198;2022-12-26T00:38:43;12.02;;;8.90;;
76962;SDS011;65902;51.452;7.198;2022-12-26T00:39:44;13.18;;;8.90;;
76962;SDS011;65902;51.452;7.198;2022-12-26T00:40:47;9.57;;;6.65;;
76962;SDS011;65902;51.452;7.198;2022-12-26T00:41:47;13.00;;;9.75;;
76962;SDS011;65902;51.452;7.198;2022-12-26T00:42:48;11.18;;;7.70;;
76962;SDS011;65902;51.452;7.198;2022-12-26T00:43:48;11.48;;;8.80;;
76962;SDS011;65902;51.452;7.198;2022-12-26T00:44:49;12.43;;;8.68;;
76962;SDS011;65902;51.452;7.198;2022-12-26T00:45:49;10.05;;;7.93;;
76962;SDS011;65902;51.452;7.198;2022-12-26T00:46:50;10.73;;;8.13;;
76962;SDS011;65902;51.452;7.198;2022-12-26T00:47:50;10.85;;;8.07;;
76962;SDS011;65902;51.452;7.198;2022-12-26T00:48:50;13.27;;;8.88;;
76962;SDS011;65902;51.452;7.198;2022-12-26T00:49:51;11.68;;;7.75;;
76962;SDS011;65902;51.452;7.198;2022-12-26T00:50:54;9.50;;;6.95;;
76962;SDS011;65902;51.452;7.198;2022-12-26T00:51:59;10.27;;;8.45;;
76962;SDS011;65902;51.452;7.198;2022-12-26T00:53:00;8.30;;;6.65;;
76962;SDS011;65902;51.452;7.198;2022-12-26T00:54:00;7.95;;;6.10;;
76962;SDS011;65902;51.452;7.198;2022-12-26T00:55:00;9.23;;;6.30;;
76962;SDS011;65902;51.452;7.198;2022-12-26T00:56:01;9.65;;;7.15;;
76962;SDS011;65902;51.452;7.198;2022-12-26T00:57:01;9.18;;;6.82;;
76962;SDS011;65902;51.452;7.198;2022-12-26T00:58:02;9.05;;;7.43;;
76962;SDS011;65902;51.452;7.198;2022-12-26T00:59:02;10.68;;;7.10;;
76962;SDS011;65902;51.452;7.198;2022-12-26T01:00:03;8.25;;;6.45;;
76962;SDS011;65902;51.452;7.198;2022-12-26T01:01:14;7.22;;;5.80;;
76962;SDS011;65902;51.452;7.198;2022-12-26T01:03:37;9.27;;;7.18;;
76962;SDS011;65902;51.452;7.198;2022-12-26T01:04:38;9.73;;;6.90;;
76962;SDS011;65902;51.452;7.198;2022-12-26T01:05:39;6.88;;;6.18;;
76962;SDS011;65902;51.452;7.198;2022-12-26T01:06:44;9.25;;;7.40;;
76962;SDS011;65902;51.452;7.198;2022-12-26T01:07:44;7.25;;;6.03;;
76962;SDS011;65902;51.452;7.198;2022-12-26T01:08:44;7.15;;;5.30;;
76962;SDS011;65902;51.452;7.198;2022-12-26T01:09:47;8.25;;;5.75;;
76962;SDS011;65902;51.452;7.198;2022-12-26T01:10:48;7.80;;;6.60;;
76962;SDS011;65902;51.452;7.198;2022-12-26T01:11:48;6.38;;;5.35;;
76962;SDS011;65902;51.452;7.198;2022-12-26T01:12:51;6.25;;;5.65;;
76962;SDS011;65902;51.452;7.198;2022-12-26T01:13:51;8.27;;;6.43;;
76962;SDS011;65902;51.452;7.198;2022-12-26T01:14:54;6.75;;;5.90;;
76962;SDS011;65902;51.452;7.198;2022-12-26T01:15:54;9.00;;;6.53;;
76962;SDS011;65902;51.452;7.198;2022-12-26T01:16:55;8.40;;;6.47;;
76962;SDS011;65902;51.452;7.198;2022-12-26T01:17:56;9.57;;;8.45;;
76962;SDS011;65902;51.452;7.198;2022-12-26T01:18:57;7.63;;;6.70;;
76962;SDS011;65902;51.452;7.198;2022-12-26T01:19:58;8.02;;;6.32;;
76962;SDS011;65902;51.452;7.198;2022-12-26T01:21:00;9.88;;;7.13;;
76962;SDS011;65902;51.452;7.198;2022-12-26T01:22:09;11.57;;;7.57;;
76962;SDS011;65902;51.452;7.198;2022-12-26T01:23:10;9.50;;;8.50;;
76962;SDS011;65902;51.452;7.198;2022-12-26T01:24:12;10.52;;;7.95;;
76962;SDS011;65902;51.452;7.198;2022-12-26T01:25:13;9.90;;;7.78;;
76962;SDS011;65902;51.452;7.198;2022-12-26T01:26:14;8.60;;;7.70;;
76962;SDS011;65902;51.452;7.198;2022-12-26T01:27:16;9.13;;;8.23;;
76962;SDS011;65902;51.452;7.198;2022-12-26T01:28:19;12.88;;;8.77;;
76962;SDS011;65902;51.452;7.198;2022-12-26T01:29:22;9.45;;;7.43;;
76962;SDS011;65902;51.452;7.198;2022-12-26T01:30:22;9.20;;;7.93;;
76962;SDS011;65902;51.452;7.198;2022-12-26T01:31:23;11.55;;;8.63;;
76962;SDS011;65902;51.452;7.198;2022-12-26T01:32:23;9.88;;;7.97;;
76962;SDS011;65902;51.452;7.198;2022-12-26T01:33:24;9.18;;;6.00;;
76962;SDS011;65902;51.452;7.198;2022-12-26T01:34:24;8.52;;;6.40;;
76962;SDS011;65902;51.452;7.198;2022-12-26T01:35:24;8.18;;;7.03;;
76962;SDS011;65902;51.452;7.198;2022-12-26T01:36:25;8.00;;;6.68;;
76962;SDS011;65902;51.452;7.198;2022-12-26T01:37:25;7.07;;;6.38;;
76962;SDS011;65902;51.452;7.198;2022-12-26T01:38:25;7.63;;;6.88;;
76962;SDS011;65902;51.452;7.198;2022-12-26T01:39:26;8.10;;;7.25;;
76962;SDS011;65902;51.452;7.198;2022-12-26T01:40:26;6.60;;;5.90;;
76962;SDS011;65902;51.452;7.198;2022-12-26T01:41:27;6.85;;;5.85;;
76962;SDS011;65902;51.452;7.198;2022-12-26T01:42:36;6.13;;;5.03;;
76962;SDS011;65902;51.452;7.198;2022-12-26T01:45:06;6.78;;;6.05;;
76962;SDS011;65902;51.452;7.198;2022-12-26T01:48:42;5.07;;;4.32;;
76962;SDS011;65902;51.452;7.198;2022-12-26T01:49:43;5.40;;;4.90;;
76962;SDS011;65902;51.452;7.198;2022-12-26T01:51:50;7.63;;;7.05;;
76962;SDS011;65902;51.452;7.198;2022-12-26T01:52:53;5.97;;;5.35;;
76962;SDS011;65902;51.452;7.198;2022-12-26T01:53:56;5.10;;;4.60;;
76962;SDS011;65902;51.452;7.198;2022-12-26T01:54:57;5.22;;;4.72;;
76962;SDS011;65902;51.452;7.198;2022-12-26T01:56:02;5.80;;;5.30;;
76962;SDS011;65902;51.452;7.198;2022-12-26T01:57:06;6.38;;;5.78;;
76962;SDS011;65902;51.452;7.198;2022-12-26T01:58:17;5.97;;;5.47;;
76962;SDS011;65902;51.452;7.198;2022-12-26T01:59:23;6.15;;;5.60;;
76962;SDS011;65902;51.452;7.198;2022-12-26T02:00:28;5.22;;;4.72;;
76962;SDS011;65902;51.452;7.198;2022-12-26T02:01:31;8.45;;;5.00;;
76962;SDS011;65902;51.452;7.198;2022-12-26T02:02:32;5.65;;;5.15;;
76962;SDS011;65902;51.452;7.198;2022-12-26T02:03:55;6.47;;;4.93;;
76962;SDS011;65902;51.452;7.198;2022-12-26T02:05:14;5.90;;;5.40;;
76962;SDS011;65902;51.452;7.198;2022-12-26T02:06:37;7.10;;;6.40;;
76962;SDS011;65902;51.452;7.198;2022-12-26T02:07:43;6.90;;;5.40;;
76962;SDS011;65902;51.452;7.198;2022-12-26T02:08:44;5.55;;;5.05;;
76962;SDS011;65902;51.452;7.198;2022-12-26T02:09:45;6.05;;;5.45;;
76962;SDS011;65902;51.452;7.198;2022-12-26T02:10:47;7.25;;;5.38;;
76962;SDS011;65902;51.452;7.198;2022-12-26T02:11:58;6.50;;;5.63;;
76962;SDS011;65902;51.452;7.198;2022-12-26T02:13:01;6.55;;;5.95;;
76962;SDS011;65902;51.452;7.198;2022-12-26T02:14:02;5.82;;;5.32;;
76962;SDS011;65902;51.452;7.198;2022-12-26T02:16:13;5.82;;;4.88;;
76962;SDS011;65902;51.452;7.198;2022-12-26T02:17:14;6.78;;;5.97;;
76962;SDS011;65902;51.452;7.198;2022-12-26T02:18:15;6.32;;;5.03;;
76962;SDS011;65902;51.452;7.198;2022-12-26T02:23:18;5.65;;;5.10;;
76962;SDS011;65902;51.452;7.198;2022-12-26T02:28:19;5.95;;;5.35;;
76962;SDS011;65902;51.452;7.198;2022-12-26T02:34:08;5.22;;;3.90;;
76962;SDS011;65902;51.452;7.198;2022-12-26T02:36:55;6.55;;;5.95;;
76962;SDS011;65902;51.452;7.198;2022-12-26T02:41:06;4.63;;;4.22;;
76962;SDS011;65902;51.452;7.198;2022-12-26T02:44:55;6.05;;;5.53;;
76962;SDS011;65902;51.452;7.198;2022-12-26T02:46:35;6.18;;;5.00;;
76962;SDS011;65902;51.452;7.198;2022-12-26T02:48:11;5.00;;;4.50;;
76962;SDS011;65902;51.452;7.198;2022-12-26T02:50:01;5.13;;;4.65;;
76962;SDS011;65902;51.452;7.198;2022-12-26T02:52:18;5.65;;;5.15;;
76962;SDS011;65902;51.452;7.198;2022-12-26T02:54:04;6.50;;;5.90;;
76962;SDS011;65902;51.452;7.198;2022-12-26T02:55:29;7.13;;;6.43;;
76962;SDS011;65902;51.452;7.198;2022-12-26T02:56:50;7.03;;;6.35;;
76962;SDS011;65902;51.452;7.198;2022-12-26T02:59:40;5.70;;;4.93;;
76962;SDS011;65902;51.452;7.198;2022-12-26T03:01:02;8.20;;;5.60;;
76962;SDS011;65902;51.452;7.198;2022-12-26T03:04:20;6.90;;;6.28;;
76962;SDS011;65902;51.452;7.198;2022-12-26T03:05:44;7.97;;;7.13;;
76962;SDS011;65902;51.452;7.198;2022-12-26T03:07:14;7.05;;;5.57;;
76962;SDS011;65902;51.452;7.198;2022-12-26T03:08:46;5.97;;;4.72;;
76962;SDS011;65902;51.452;7.198;2022-12-26T03:10:24;6.93;;;5.90;;
76962;SDS011;65902;51.452;7.198;2022-12-26T03:11:50;7.43;;;6.70;;
76962;SDS011;65902;51.452;7.198;2022-12-26T03:13:18;5.68;;;5.07;;
76962;SDS011;65902;51.452;7.198;2022-12-26T03:14:24;7.47;;;6.88;;
76962;SDS011;65902;51.452;7.198;2022-12-26T03:15:29;5.78;;;5.18;;
76962;SDS011;65902;51.452;7.198;2022-12-26T03:16:53;5.63;;;4.95;;
76962;SDS011;65902;51.452;7.198;2022-12-26T03:18:16;8.15;;;6.93;;
76962;SDS011;65902;51.452;7.198;2022-12-26T03:19:18;7.07;;;6.47;;
76962;SDS011;65902;51.452;7.198;2022-12-26T03:20:20;8.43;;;7.55;;
76962;SDS011;65902;51.452;7.198;2022-12-26T03:21:23;8.38;;;7.15;;
76962;SDS011;65902;51.452;7.198;2022-12-26T03:22:31;8.40;;;7.60;;
76962;SDS011;65902;51.452;7.198;2022-12-26T03:23:36;7.90;;;7.13;;
76962;SDS011;65902;51.452;7.198;2022-12-26T03:24:39;8.98;;;8.18;;
76962;SDS011;65902;51.452;7.198;2022-12-26T03:26:01;9.35;;;8.57;;
76962;SDS011;65902;51.452;7.198;2022-12-26T03:27:24;6.22;;;5.55;;
76962;SDS011;65902;51.452;7.198;2022-12-26T03:28:28;6.35;;;5.75;;
76962;SDS011;65902;51.452;7.198;2022-12-26T03:29:28;5.78;;;5.18;;
76962;SDS011;65902;51.452;7.198;2022-12-26T03:30:47;7.78;;;6.97;;
76962;SDS011;65902;51.452;7.198;2022-12-26T03:31:51;6.45;;;5.85;;
76962;SDS011;65902;51.452;7.198;2022-12-26T03:32:53;7.10;;;6.35;;
76962;SDS011;65902;51.452;7.198;2022-12-26T03:34:03;8.27;;;7.55;;
76962;SDS011;65902;51.452;7.198;2022-12-26T03:35:16;7.20;;;6.03;;
76962;SDS011;65902;51.452;7.198;2022-12-26T03:37:40;8.07;;;7.28;;
76962;SDS011;65902;51.452;7.198;2022-12-26T03:38:57;8.32;;;7.50;;
76962;SDS011;65902;51.452;7.198;2022-12-26T03:40:19;7.43;;;6.13;;
76962;SDS011;65902;51.452;7.198;2022-12-26T03:41:53;7.47;;;6.47;;
76962;SDS011;65902;51.452;7.198;2022-12-26T03:43:22;8.85;;;7.97;;
76962;SDS011;65902;51.452;7.198;2022-12-26T03:44:53;9.50;;;8.52;;
76962;SDS011;65902;51.452;7.198;2022-12-26T03:46:29;8.35;;;7.28;;
76962;SDS011;65902;51.452;7.198;2022-12-26T03:47:58;9.32;;;7.90;;
76962;SDS011;65902;51.452;7.198;2022-12-26T03:49:26;11.52;;;8.73;;
76962;SDS011;65902;51.452;7.198;2022-12-26T03:50:48;10.63;;;9.35;;
76962;SDS011;65902;51.452;7.198;2022-12-26T03:53:38;10.80;;;9.77;;
76962;SDS011;65902;51.452;7.198;2022-12-26T03:55:04;9.75;;;8.75;;
76962;SDS011;65902;51.452;7.198;2022-12-26T03:57:55;8.70;;;7.72;;
76962;SDS011;65902;51.452;7.198;2022-12-26T03:59:26;10.45;;;8.07;;
76962;SDS011;65902;51.452;7.198;2022-12-26T04:00:57;11.65;;;9.88;;
76962;SDS011;65902;51.452;7.198;2022-12-26T04:02:16;12.10;;;8.73;;
76962;SDS011;65902;51.452;7.198;2022-12-26T04:03:36;10.15;;;9.02;;
76962;SDS011;65902;51.452;7.198;2022-12-26T04:04:56;12.77;;;10.77;;
76962;SDS011;65902;51.452;7.198;2022-12-26T04:06:18;10.15;;;9.13;;
76962;SDS011;65902;51.452;7.198;2022-12-26T04:07:41;11.02;;;9.88;;
76962;SDS011;65902;51.452;7.198;2022-12-26T04:09:06;10.15;;;8.68;;
76962;SDS011;65902;51.452;7.198;2022-12-26T04:10:30;8.52;;;7.70;;
76962;SDS011;65902;51.452;7.198;2022-12-26T04:11:51;10.35;;;8.27;;
76962;SDS011;65902;51.452;7.198;2022-12-26T04:13:19;8.30;;;7.45;;
76962;SDS011;65902;51.452;7.198;2022-12-26T04:20:26;9.18;;;8.27;;
76962;SDS011;65902;51.452;7.198;2022-12-26T04:21:42;5.80;;;5.00;;
76962;SDS011;65902;51.452;7.198;2022-12-26T04:25:20;7.18;;;6.47;;
76962;SDS011;65902;51.452;7.198;2022-12-26T04:26:38;7.75;;;7.05;;
76962;SDS011;65902;51.452;7.198;2022-12-26T04:28:00;7.82;;;7.13;;
76962;SDS011;65902;51.452;7.198;2022-12-26T04:29:18;10.52;;;9.52;;
76962;SDS011;65902;51.452;7.198;2022-12-26T04:30:37;8.57;;;7.72;;
76962;SDS011;65902;51.452;7.198;2022-12-26T04:33:24;8.68;;;7.85;;
76962;SDS011;65902;51.452;7.198;2022-12-26T04:36:32;10.55;;;9.55;;
76962;SDS011;65902;51.452;7.198;2022-12-26T04:37:54;8.73;;;7.45;;
76962;SDS011;65902;51.452;7.198;2022-12-26T04:39:15;7.50;;;6.63;;
76962;SDS011;65902;51.452;7.198;2022-12-26T04:40:38;8.10;;;7.32;;
76962;SDS011;65902;51.452;7.198;2022-12-26T04:42:00;6.93;;;6.22;;
76962;SDS011;65902;51.452;7.198;2022-12-26T04:43:21;7.65;;;6.95;;
76962;SDS011;65902;51.452;7.198;2022-12-26T04:44:41;7.90;;;7.10;;
76962;SDS011;65902;51.452;7.198;2022-12-26T04:45:42;7.85;;;6.40;;
76962;SDS011;65902;51.452;7.198;2022-12-26T04:46:44;8.02;;;7.15;;
76962;SDS011;65902;51.452;7.198;2022-12-26T04:47:48;7.13;;;6.43;;
76962;SDS011;65902;51.452;7.198;2022-12-26T04:49:09;9.65;;;8.85;;
76962;SDS011;65902;51.452;7.198;2022-12-26T04:50:29;7.30;;;6.60;;
76962;SDS011;65902;51.452;7.198;2022-12-26T04:51:29;8.20;;;7.50;;
76962;SDS011;65902;51.452;7.198;2022-12-26T04:52:30;7.45;;;6.65;;
76962;SDS011;65902;51.452;7.198;2022-12-26T04:53:48;8.77;;;7.95;;
76962;SDS011;65902;51.452;7.198;2022-12-26T04:54:49;7.93;;;7.13;;
76962;SDS011;65902;51.452;7.198;2022-12-26T04:55:49;7.13;;;6.43;;
76962;SDS011;65902;51.452;7.198;2022-12-26T04:56:50;7.72;;;7.03;;
76962;SDS011;65902;51.452;7.198;2022-12-26T04:57:50;7.78;;;7.07;;
76962;SDS011;65902;51.452;7.198;2022-12-26T04:58:51;8.38;;;7.57;;
76962;SDS011;65902;51.452;7.198;2022-12-26T04:59:53;7.32;;;6.57;;
76962;SDS011;65902;51.452;7.198;2022-12-26T05:00:54;9.23;;;8.43;;
76962;SDS011;65902;51.452;7.198;2022-12-26T05:02:17;7.63;;;6.85;;
76962;SDS011;65902;51.452;7.198;2022-12-26T05:03:36;8.80;;;8.00;;
76962;SDS011;65902;51.452;7.198;2022-12-26T05:04:55;8.18;;;7.38;;
76962;SDS011;65902;51.452;7.198;2022-12-26T05:06:14;7.85;;;7.05;;
76962;SDS011;65902;51.452;7.198;2022-12-26T05:07:34;7.80;;;6.90;;
76962;SDS011;65902;51.452;7.198;2022-12-26T05:08:53;7.90;;;7.18;;
76962;SDS011;65902;51.452;7.198;2022-12-26T05:10:14;8.13;;;7.40;;
76962;SDS011;65902;51.452;7.198;2022-12-26T05:11:17;8.00;;;7.30;;
76962;SDS011;65902;51.452;7.198;2022-12-26T05:12:17;6.55;;;5.63;;
76962;SDS011;65902;51.452;7.198;2022-12-26T05:13:18;8.25;;;7.07;;
76962;SDS011;65902;51.452;7.198;2022-12-26T05:14:18;7.55;;;6.85;;
76962;SDS011;65902;51.452;7.198;2022-12-26T05:15:19;7.22;;;6.53;;
76962;SDS011;65902;51.452;7.198;2022-12-26T05:16:22;6.32;;;5.63;;
76962;SDS011;65902;51.452;7.198;2022-12-26T05:17:41;5.15;;;4.65;;
76962;SDS011;65902;51.452;7.198;2022-12-26T05:19:00;6.45;;;5.78;;
76962;SDS011;65902;51.452;7.198;2022-12-26T05:20:19;7.28;;;6.57;;
76962;SDS011;65902;51.452;7.198;2022-12-26T05:21:38;7.15;;;6.30;;
76962;SDS011;65902;51.452;7.198;2022-12-26T05:22:57;7.07;;;6.03;;
76962;SDS011;65902;51.452;7.198;2022-12-26T05:24:18;7.43;;;6.10;;
76962;SDS011;65902;51.452;7.198;2022-12-26T05:25:39;6.20;;;5.55;;
76962;SDS011;65902;51.452;7.198;2022-12-26T05:27:00;7.68;;;6.95;;
76962;SDS011;65902;51.452;7.198;2022-12-26T05:28:19;7.22;;;5.68;;
76962;SDS011;65902;51.452;7.198;2022-12-26T05:29:38;8.48;;;7.20;;
76962;SDS011;65902;51.452;7.198;2022-12-26T05:30:38;8.00;;;7.13;;
76962;SDS011;65902;51.452;7.198;2022-12-26T05:31:39;8.73;;;7.28;;
76962;SDS011;65902;51.452;7.198;2022-12-26T05:32:39;7.10;;;6.25;;
76962;SDS011;65902;51.452;7.198;2022-12-26T05:33:58;8.45;;;6.30;;
76962;SDS011;65902;51.452;7.198;2022-12-26T05:35:04;9.10;;;6.85;;
76962;SDS011;65902;51.452;7.198;2022-12-26T05:36:06;8.10;;;7.35;;
76962;SDS011;65902;51.452;7.198;2022-12-26T05:37:07;7.55;;;5.90;;
76962;SDS011;65902;51.452;7.198;2022-12-26T05:38:10;8.27;;;7.00;;
76962;SDS011;65902;51.452;7.198;2022-12-26T05:39:10;7.00;;;5.85;;
76962;SDS011;65902;51.452;7.198;2022-12-26T05:40:13;6.40;;;5.50;;
76962;SDS011;65902;51.452;7.198;2022-12-26T05:41:14;6.97;;;6.25;;
76962;SDS011;65902;51.452;7.198;2022-12-26T05:42:15;7.07;;;6.38;;
76962;SDS011;65902;51.452;7.198;2022-12-26T05:43:15;6.60;;;5.93;;
76962;SDS011;65902;51.452;7.198;2022-12-26T05:44:17;7.53;;;6.82;;
76962;SDS011;65902;51.452;7.198;2022-12-26T05:45:18;8.57;;;7.78;;
76962;SDS011;65902;51.452;7.198;2022-12-26T05:46:18;6.85;;;6.15;;
76962;SDS011;65902;51.452;7.198;2022-12-26T05:47:19;6.72;;;6.03;;
76962;SDS011;65902;51.452;7.198;2022-12-26T05:48:19;5.88;;;5.03;;
76962;SDS011;65902;51.452;7.198;2022-12-26T05:49:20;7.38;;;6.30;;
76962;SDS011;65902;51.452;7.198;2022-12-26T05:50:20;7.63;;;6.43;;
76962;SDS011;65902;51.452;7.198;2022-12-26T05:51:20;5.47;;;4.93;;
76962;SDS011;65902;51.452;7.198;2022-12-26T05:52:21;7.30;;;6.60;;
76962;SDS011;65902;51.452;7.198;2022-12-26T05:53:21;6.45;;;4.82;;
76962;SDS011;65902;51.452;7.198;2022-12-26T05:54:24;5.35;;;4.80;;
76962;SDS011;65902;51.452;7.198;2022-12-26T05:55:24;5.93;;;5.32;;
76962;SDS011;65902;51.452;7.198;2022-12-26T05:56:25;8.05;;;5.25;;
76962;SDS011;65902;51.452;7.198;2022-12-26T05:57:31;8.15;;;7.43;;
76962;SDS011;65902;51.452;7.198;2022-12-26T05:58:33;6.43;;;5.70;;
76962;SDS011;65902;51.452;7.198;2022-12-26T05:59:34;6.65;;;5.63;;
76962;SDS011;65902;51.452;7.198;2022-12-26T06:00:34;7.43;;;6.80;;
76962;SDS011;65902;51.452;7.198;2022-12-26T06:01:35;6.28;;;5.68;;
76962;SDS011;65902;51.452;7.198;2022-12-26T06:02:35;8.00;;;7.20;;
76962;SDS011;65902;51.452;7.198;2022-12-26T06:03:36;7.82;;;7.05;;
76962;SDS011;65902;51.452;7.198;2022-12-26T06:04:37;6.88;;;6.18;;
76962;SDS011;65902;51.452;7.198;2022-12-26T06:05:37;5.63;;;5.07;;
76962;SDS011;65902;51.452;7.198;2022-12-26T06:06:38;7.65;;;6.53;;
76962;SDS011;65902;51.452;7.198;2022-12-26T06:07:38;6.93;;;6.18;;
76962;SDS011;65902;51.452;7.198;2022-12-26T06:08:43;6.00;;;5.30;;
76962;SDS011;65902;51.452;7.198;2022-12-26T06:09:47;7.70;;;6.90;;
76962;SDS011;65902;51.452;7.198;2022-12-26T06:10:47;7.68;;;6.47;;
76962;SDS011;65902;51.452;7.198;2022-12-26T06:11:48;8.65;;;6.45;;
76962;SDS011;65902;51.452;7.198;2022-12-26T06:12:51;8.30;;;7.32;;
76962;SDS011;65902;51.452;7.198;2022-12-26T06:13:52;9.52;;;7.38;;
76962;SDS011;65902;51.452;7.198;2022-12-26T06:14:53;6.43;;;5.75;;
76962;SDS011;65902;51.452;7.198;2022-12-26T06:15:53;8.82;;;7.93;;
76962;SDS011;65902;51.452;7.198;2022-12-26T06:16:54;8.25;;;6.40;;
76962;SDS011;65902;51.452;7.198;2022-12-26T06:17:54;8.63;;;7.43;;
76962;SDS011;65902;51.452;7.198;2022-12-26T06:18:57;7.80;;;7.00;;
76962;SDS011;65902;51.452;7.198;2022-12-26T06:19:57;7.63;;;6.30;;
76962;SDS011;65902;51.452;7.198;2022-12-26T06:20:58;8.55;;;6.13;;
76962;SDS011;65902;51.452;7.198;2022-12-26T06:21:58;6.82;;;5.70;;
76962;SDS011;65902;51.452;7.198;2022-12-26T06:22:59;8.18;;;6.53;;
76962;SDS011;65902;51.452;7.198;2022-12-26T06:23:59;6.75;;;5.65;;
76962;SDS011;65902;51.452;7.198;2022-12-26T06:25:00;7.25;;;5.75;;
76962;SDS011;65902;51.452;7.198;2022-12-26T06:26:03;7.72;;;6.82;;
76962;SDS011;65902;51.452;7.198;2022-12-26T06:27:03;7.88;;;6.85;;
76962;SDS011;65902;51.452;7.198;2022-12-26T06:28:04;9.25;;;7.22;;
76962;SDS011;65902;51.452;7.198;2022-12-26T06:29:04;8.45;;;7.47;;
76962;SDS011;65902;51.452;7.198;2022-12-26T06:30:07;8.20;;;7.40;;
76962;SDS011;65902;51.452;7.198;2022-12-26T06:31:10;6.93;;;6.22;;
76962;SDS011;65902;51.452;7.198;2022-12-26T06:32:11;9.88;;;7.05;;
76962;SDS011;65902;51.452;7.198;2022-12-26T06:33:12;7.28;;;6.57;;
76962;SDS011;65902;51.452;7.198;2022-12-26T06:34:12;7.95;;;6.47;;
76962;SDS011;65902;51.452;7.198;2022-12-26T06:35:13;7.82;;;7.07;;
76962;SDS011;65902;51.452;7.198;2022-12-26T06:36:15;8.18;;;6.82;;
76962;SDS011;65902;51.452;7.198;2022-12-26T06:37:17;10.02;;;9.00;;
76962;SDS011;65902;51.452;7.198;2022-12-26T06:38:17;9.05;;;7.00;;
76962;SDS011;65902;51.452;7.198;2022-12-26T06:39:18;9.43;;;7.15;;
76962;SDS011;65902;51.452;7.198;2022-12-26T06:40:18;8.18;;;7.30;;
76962;SDS011;65902;51.452;7.198;2022-12-26T06:41:22;9.95;;;7.85;;
76962;SDS011;65902;51.452;7.198;2022-12-26T06:42:23;9.18;;;7.32;;
76962;SDS011;65902;51.452;7.198;2022-12-26T06:43:24;8.32;;;6.40;;
76962;SDS011;65902;51.452;7.198;2022-12-26T06:44:24;8.35;;;7.35;;
76962;SDS011;65902;51.452;7.198;2022-12-26T06:45:24;7.65;;;6.85;;
76962;SDS011;65902;51.452;7.198;2022-12-26T06:46:25;8.35;;;7.35;;
76962;SDS011;65902;51.452;7.198;2022-12-26T06:47:28;8.65;;;7.60;;
76962;SDS011;65902;51.452;7.198;2022-12-26T06:48:29;9.05;;;8.02;;
76962;SDS011;65902;51.452;7.198;2022-12-26T06:49:32;8.35;;;7.25;;
76962;SDS011;65902;51.452;7.198;2022-12-26T06:50:34;7.93;;;7.13;;
76962;SDS011;65902;51.452;7.198;2022-12-26T06:51:35;8.68;;;7.78;;
76962;SDS011;65902;51.452;7.198;2022-12-26T06:52:35;10.77;;;6.93;;
76962;SDS011;65902;51.452;7.198;2022-12-26T06:53:36;8.43;;;6.05;;
76962;SDS011;65902;51.452;7.198;2022-12-26T06:54:36;10.52;;;7.97;;
76962;SDS011;65902;51.452;7.198;2022-12-26T06:55:37;9.57;;;8.40;;
76962;SDS011;65902;51.452;7.198;2022-12-26T06:56:39;9.07;;;8.05;;
76962;SDS011;65902;51.452;7.198;2022-12-26T06:57:42;9.82;;;7.97;;
76962;SDS011;65902;51.452;7.198;2022-12-26T06:58:43;8.15;;;7.35;;
76962;SDS011;65902;51.452;7.198;2022-12-26T06:59:43;8.52;;;7.60;;
76962;SDS011;65902;51.452;7.198;2022-12-26T07:00:44;10.55;;;8.48;;
76962;SDS011;65902;51.452;7.198;2022-12-26T07:01:44;9.40;;;8.40;;
76962;SDS011;65902;51.452;7.198;2022-12-26T07:02:47;9.25;;;7.40;;
76962;SDS011;65902;51.452;7.198;2022-12-26T07:03:48;10.02;;;7.18;;
76962;SDS011;65902;51.452;7.198;2022-12-26T07:04:53;8.82;;;6.40;;
76962;SDS011;65902;51.452;7.198;2022-12-26T07:05:54;8.43;;;6.20;;
76962;SDS011;65902;51.452;7.198;2022-12-26T07:06:54;7.28;;;6.13;;
76962;SDS011;65902;51.452;7.198;2022-12-26T07:07:54;7.50;;;6.65;;
76962;SDS011;65902;51.452;7.198;2022-12-26T07:08:56;7.82;;;6.55;;
76962;SDS011;65902;51.452;7.198;2022-12-26T07:09:58;8.85;;;6.45;;
76962;SDS011;65902;51.452;7.198;2022-12-26T07:11:01;7.63;;;6.57;;
76962;SDS011;65902;51.452;7.198;2022-12-26T07:12:02;7.07;;;6.13;;
76962;SDS011;65902;51.452;7.198;2022-12-26T07:13:02;9.00;;;6.25;;
76962;SDS011;65902;51.452;7.198;2022-12-26T07:14:03;7.72;;;6.25;;
76962;SDS011;65902;51.452;7.198;2022-12-26T07:15:06;7.88;;;6.57;;
76962;SDS011;65902;51.452;7.198;2022-12-26T07:16:10;6.65;;;6.05;;
76962;SDS011;65902;51.452;7.198;2022-12-26T07:17:11;6.60;;;5.93;;
76962;SDS011;65902;51.452;7.198;2022-12-26T07:18:11;6.82;;;5.38;;
76962;SDS011;65902;51.452;7.198;2022-12-26T07:19:12;9.65;;;6.97;;
76962;SDS011;65902;51.452;7.198;2022-12-26T07:20:13;7.55;;;6.85;;
76962;SDS011;65902;51.452;7.198;2022-12-26T07:21:14;8.38;;;7.57;;
76962;SDS011;65902;51.452;7.198;2022-12-26T07:22:15;5.80;;;5.30;;
76962;SDS011;65902;51.452;7.198;2022-12-26T07:23:15;6.65;;;5.50;;
76962;SDS011;65902;51.452;7.198;2022-12-26T07:24:16;7.68;;;6.88;;
76962;SDS011;65902;51.452;7.198;2022-12-26T07:25:18;7.95;;;7.25;;
76962;SDS011;65902;51.452;7.198;2022-12-26T07:26:18;7.25;;;6.47;;
76962;SDS011;65902;51.452;7.198;2022-12-26T07:27:19;7.68;;;6.88;;
76962;SDS011;65902;51.452;7.198;2022-12-26T07:28:22;7.68;;;5.82;;
76962;SDS011;65902;51.452;7.198;2022-12-26T07:29:22;8.00;;;7.22;;